sensor_id;sensor_type;location;lat;lon;timestamp;pressure;altitude;pressure_sealevel;temperature;humidity
46682;BME280;34101;53.430;-2.224;2024-01-06T00:01:38;100662.37;;;8.27;76.71
46682;BME280;34101;53.430;-2.224;2024-01-06T00:04:05;100665.22;;;8.20;76.83
46682;BME280;34101;53.430;-2.224;2024-01-06T00:06:33;100672.17;;;8.13;77.10
46682;BME280;34101;53.430;-2.224;2024-01-06T00:09:01;100678.20;;;8.09;77.17
46682;BME280;34101;53.430;-2.224;2024-01-06T00:11:29;100682.68;;;8.07;77.29
46682;BME280;34101;53.430;-2.224;2024-01-06T00:13:56;100681.10;;;8.01;77.30
46682;BME280;34101;53.430;-2.224;2024-01-06T00:16:23;100682.88;;;7.98;77.47
46682;BME280;34101;53.430;-2.224;2024-01-06T00:18:51;100688.51;;;7.96;77.46
46682;BME280;34101;53.430;-2.224;2024-01-06T00:21:18;100694.53;;;7.92;77.49
46682;BME280;34101;53.430;-2.224;2024-01-06T00:23:46;100700.81;;;7.88;77.51
46682;BME280;34101;53.430;-2.224;2024-01-06T00:26:13;100705.91;;;7.83;77.36
46682;BME280;34101;53.430;-2.224;2024-01-06T00:28:41;100710.60;;;7.79;77.43
46682;BME280;34101;53.430;-2.224;2024-01-06T00:31:09;100713.47;;;7.78;77.66
46682;BME280;34101;53.430;-2.224;2024-01-06T00:33:36;100713.69;;;7.77;77.46
46682;BME280;34101;53.430;-2.224;2024-01-06T00:36:06;100716.08;;;7.75;77.58
46682;BME280;34101;53.430;-2.224;2024-01-06T00:38:34;100717.51;;;7.73;77.71
46682;BME280;34101;53.430;-2.224;2024-01-06T00:41:02;100721.90;;;7.70;77.77
46682;BME280;34101;53.430;-2.224;2024-01-06T00:43:29;100724.04;;;7.65;77.88
46682;BME280;34101;53.430;-2.224;2024-01-06T00:45:57;100729.36;;;7.62;77.97
46682;BME280;34101;53.430;-2.224;2024-01-06T00:48:24;100727.86;;;7.61;78.17
46682;BME280;34101;53.430;-2.224;2024-01-06T00:50:52;100728.99;;;7.58;78.21
46682;BME280;34101;53.430;-2.224;2024-01-06T00:53:19;100728.26;;;7.51;77.95
46682;BME280;34101;53.430;-2.224;2024-01-06T00:55:46;100727.36;;;7.46;78.19
46682;BME280;34101;53.430;-2.224;2024-01-06T00:58:14;100726.66;;;7.45;78.37
46682;BME280;34101;53.430;-2.224;2024-01-06T01:00:41;100732.18;;;7.42;78.16
46682;BME280;34101;53.430;-2.224;2024-01-06T01:03:08;100738.46;;;7.36;78.36
46682;BME280;34101;53.430;-2.224;2024-01-06T01:05:35;100742.77;;;7.35;78.20
46682;BME280;34101;53.430;-2.224;2024-01-06T01:08:04;100744.58;;;7.31;78.18
46682;BME280;34101;53.430;-2.224;2024-01-06T01:10:32;100747.61;;;7.28;78.32
46682;BME280;34101;53.430;-2.224;2024-01-06T01:12:59;100750.88;;;7.25;78.53
46682;BME280;34101;53.430;-2.224;2024-01-06T01:15:27;100753.14;;;7.23;78.56
46682;BME280;34101;53.430;-2.224;2024-01-06T01:17:54;100752.97;;;7.17;78.28
46682;BME280;34101;53.430;-2.224;2024-01-06T01:20:22;100754.18;;;7.13;78.15
46682;BME280;34101;53.430;-2.224;2024-01-06T01:22:49;100760.02;;;7.05;78.19
46682;BME280;34101;53.430;-2.224;2024-01-06T01:25:17;100761.74;;;6.98;78.24
46682;BME280;34101;53.430;-2.224;2024-01-06T01:27:44;100761.91;;;6.89;77.86
46682;BME280;34101;53.430;-2.224;2024-01-06T01:30:12;100765.32;;;6.77;78.15
46682;BME280;34101;53.430;-2.224;2024-01-06T01:32:40;100769.13;;;6.75;78.54
46682;BME280;34101;53.430;-2.224;2024-01-06T01:35:08;100767.38;;;6.75;78.60
46682;BME280;34101;53.430;-2.224;2024-01-06T01:37:35;100774.62;;;6.70;78.63
46682;BME280;34101;53.430;-2.224;2024-01-06T01:40:04;100780.45;;;6.65;78.81
46682;BME280;34101;53.430;-2.224;2024-01-06T01:42:33;100782.69;;;6.60;78.51
46682;BME280;34101;53.430;-2.224;2024-01-06T01:45:00;100783.77;;;6.50;78.08
46682;BME280;34101;53.430;-2.224;2024-01-06T01:47:28;100786.83;;;6.43;78.15
46682;BME280;34101;53.430;-2.224;2024-01-06T01:49:55;100788.92;;;6.40;78.34
46682;BME280;34101;53.430;-2.224;2024-01-06T01:52:22;100789.99;;;6.42;78.68
46682;BME280;34101;53.430;-2.224;2024-01-06T01:54:52;100791.67;;;6.42;78.86
46682;BME280;34101;53.430;-2.224;2024-01-06T01:57:21;100795.12;;;6.36;78.17
46682;BME280;34101;53.430;-2.224;2024-01-06T01:59:52;100796.84;;;6.33;78.32
46682;BME280;34101;53.430;-2.224;2024-01-06T02:02:21;100799.66;;;6.34;77.79
46682;BME280;34101;53.430;-2.224;2024-01-06T02:04:48;100797.47;;;6.31;78.28
46682;BME280;34101;53.430;-2.224;2024-01-06T02:07:16;100802.47;;;6.31;78.44
46682;BME280;34101;53.430;-2.224;2024-01-06T02:09:44;100805.93;;;6.32;78.54
46682;BME280;34101;53.430;-2.224;2024-01-06T02:12:12;100807.21;;;6.32;78.01
46682;BME280;34101;53.430;-2.224;2024-01-06T02:14:39;100815.16;;;6.29;78.16
46682;BME280;34101;53.430;-2.224;2024-01-06T02:17:06;100819.51;;;6.30;77.60
46682;BME280;34101;53.430;-2.224;2024-01-06T02:19:34;100825.50;;;6.29;77.87
46682;BME280;34101;53.430;-2.224;2024-01-06T02:22:03;100825.33;;;6.32;77.41
46682;BME280;34101;53.430;-2.224;2024-01-06T02:24:31;100828.02;;;6.18;77.53
46682;BME280;34101;53.430;-2.224;2024-01-06T02:26:58;100835.39;;;6.24;78.09
46682;BME280;34101;53.430;-2.224;2024-01-06T02:29:26;100837.67;;;6.26;78.23
46682;BME280;34101;53.430;-2.224;2024-01-06T02:31:53;100840.07;;;6.22;77.66
46682;BME280;34101;53.430;-2.224;2024-01-06T02:34:21;100841.62;;;6.19;78.32
46682;BME280;34101;53.430;-2.224;2024-01-06T02:36:48;100846.16;;;6.20;78.26
46682;BME280;34101;53.430;-2.224;2024-01-06T02:39:16;100855.15;;;6.18;78.48
46682;BME280;34101;53.430;-2.224;2024-01-06T02:41:43;100857.15;;;6.13;78.59
46682;BME280;34101;53.430;-2.224;2024-01-06T02:44:11;100856.10;;;6.07;78.51
46682;BME280;34101;53.430;-2.224;2024-01-06T02:46:39;100860.73;;;6.01;78.76
46682;BME280;34101;53.430;-2.224;2024-01-06T02:49:07;100864.87;;;5.98;78.89
46682;BME280;34101;53.430;-2.224;2024-01-06T02:51:35;100867.15;;;5.97;78.91
46682;BME280;34101;53.430;-2.224;2024-01-06T02:54:03;100871.84;;;5.94;78.46
46682;BME280;34101;53.430;-2.224;2024-01-06T02:56:30;100875.70;;;5.88;78.61
46682;BME280;34101;53.430;-2.224;2024-01-06T02:58:58;100879.44;;;5.84;78.53
46682;BME280;34101;53.430;-2.224;2024-01-06T03:01:26;100885.25;;;5.82;78.43
46682;BME280;34101;53.430;-2.224;2024-01-06T03:03:53;100886.93;;;5.79;78.63
46682;BME280;34101;53.430;-2.224;2024-01-06T03:06:20;100884.97;;;5.75;78.50
46682;BME280;34101;53.430;-2.224;2024-01-06T03:08:48;100888.80;;;5.70;78.48
46682;BME280;34101;53.430;-2.224;2024-01-06T03:11:16;100888.47;;;5.67;78.51
46682;BME280;34101;53.430;-2.224;2024-01-06T03:13:43;100891.52;;;5.61;78.61
46682;BME280;34101;53.430;-2.224;2024-01-06T03:16:11;100897.24;;;5.59;78.56
46682;BME280;34101;53.430;-2.224;2024-01-06T03:18:39;100899.81;;;5.55;78.72
46682;BME280;34101;53.430;-2.224;2024-01-06T03:21:21;100900.15;;;5.53;78.70
46682;BME280;34101;53.430;-2.224;2024-01-06T03:23:49;100900.75;;;5.54;78.72
46682;BME280;34101;53.430;-2.224;2024-01-06T03:26:17;100902.28;;;5.49;78.99
46682;BME280;34101;53.430;-2.224;2024-01-06T03:28:45;100902.86;;;5.46;78.96
46682;BME280;34101;53.430;-2.224;2024-01-06T03:31:17;100907.29;;;5.44;78.78
46682;BME280;34101;53.430;-2.224;2024-01-06T03:33:45;100907.49;;;5.34;78.57
46682;BME280;34101;53.430;-2.224;2024-01-06T03:36:13;100912.33;;;5.30;78.89
46682;BME280;34101;53.430;-2.224;2024-01-06T03:38:41;100914.80;;;5.29;79.02
46682;BME280;34101;53.430;-2.224;2024-01-06T03:41:08;100918.26;;;5.30;78.99
46682;BME280;34101;53.430;-2.224;2024-01-06T03:43:41;100918.73;;;5.27;78.68
46682;BME280;34101;53.430;-2.224;2024-01-06T03:46:09;100918.52;;;5.23;78.82
46682;BME280;34101;53.430;-2.224;2024-01-06T03:48:36;100919.46;;;5.21;78.49
46682;BME280;34101;53.430;-2.224;2024-01-06T03:51:04;100922.97;;;5.13;78.44
46682;BME280;34101;53.430;-2.224;2024-01-06T03:53:32;100927.68;;;5.09;78.19
46682;BME280;34101;53.430;-2.224;2024-01-06T03:55:59;100932.54;;;5.05;78.66
46682;BME280;34101;53.430;-2.224;2024-01-06T03:58:27;100935.23;;;4.99;78.47
46682;BME280;34101;53.430;-2.224;2024-01-06T04:00:54;100938.99;;;4.95;78.74
46682;BME280;34101;53.430;-2.224;2024-01-06T04:03:22;100944.31;;;4.94;79.04
46682;BME280;34101;53.430;-2.224;2024-01-06T04:05:50;100944.03;;;4.91;78.12
46682;BME280;34101;53.430;-2.224;2024-01-06T04:08:18;100943.82;;;4.82;78.06
46682;BME280;34101;53.430;-2.224;2024-01-06T04:10:46;100948.66;;;4.73;78.61
46682;BME280;34101;53.430;-2.224;2024-01-06T04:13:14;100954.69;;;4.75;78.75
46682;BME280;34101;53.430;-2.224;2024-01-06T04:15:42;100958.60;;;4.74;79.06
46682;BME280;34101;53.430;-2.224;2024-01-06T04:18:10;100960.18;;;4.79;78.96
46682;BME280;34101;53.430;-2.224;2024-01-06T04:20:37;100963.54;;;4.82;78.81
46682;BME280;34101;53.430;-2.224;2024-01-06T04:23:05;100962.87;;;4.79;78.85
46682;BME280;34101;53.430;-2.224;2024-01-06T04:25:33;100968.25;;;4.75;78.49
46682;BME280;34101;53.430;-2.224;2024-01-06T04:28:01;100967.43;;;4.75;78.67
46682;BME280;34101;53.430;-2.224;2024-01-06T04:30:29;100973.10;;;4.76;78.54
46682;BME280;34101;53.430;-2.224;2024-01-06T04:32:56;100974.85;;;4.72;78.67
46682;BME280;34101;53.430;-2.224;2024-01-06T04:35:25;100978.83;;;4.69;78.75
46682;BME280;34101;53.430;-2.224;2024-01-06T04:37:52;100977.42;;;4.66;78.57
46682;BME280;34101;53.430;-2.224;2024-01-06T04:40:20;100975.07;;;4.70;78.67
46682;BME280;34101;53.430;-2.224;2024-01-06T04:42:47;100968.83;;;4.72;78.80
46682;BME280;34101;53.430;-2.224;2024-01-06T04:45:15;100960.78;;;4.68;78.45
46682;BME280;34101;53.430;-2.224;2024-01-06T04:47:43;100963.65;;;4.71;78.72
46682;BME280;34101;53.430;-2.224;2024-01-06T04:50:10;100968.57;;;4.70;78.63
46682;BME280;34101;53.430;-2.224;2024-01-06T04:52:37;100975.30;;;4.63;78.37
46682;BME280;34101;53.430;-2.224;2024-01-06T04:55:05;100979.07;;;4.55;78.48
46682;BME280;34101;53.430;-2.224;2024-01-06T04:57:33;100981.65;;;4.54;78.84
46682;BME280;34101;53.430;-2.224;2024-01-06T05:00:01;100986.51;;;4.53;78.82
46682;BME280;34101;53.430;-2.224;2024-01-06T05:02:29;100990.05;;;4.49;78.90
46682;BME280;34101;53.430;-2.224;2024-01-06T05:04:56;100992.57;;;4.48;78.62
46682;BME280;34101;53.430;-2.224;2024-01-06T05:07:24;100995.13;;;4.41;78.72
46682;BME280;34101;53.430;-2.224;2024-01-06T05:09:51;100995.54;;;4.41;78.82
46682;BME280;34101;53.430;-2.224;2024-01-06T05:12:19;100996.52;;;4.44;79.03
46682;BME280;34101;53.430;-2.224;2024-01-06T05:14:46;100994.26;;;4.43;78.92
46682;BME280;34101;53.430;-2.224;2024-01-06T05:17:14;100992.26;;;4.38;78.58
46682;BME280;34101;53.430;-2.224;2024-01-06T05:19:41;101001.16;;;4.32;78.95
46682;BME280;34101;53.430;-2.224;2024-01-06T05:22:09;101004.80;;;4.34;78.94
46682;BME280;34101;53.430;-2.224;2024-01-06T05:24:37;101004.13;;;4.35;78.78
46682;BME280;34101;53.430;-2.224;2024-01-06T05:27:05;101006.87;;;4.34;78.55
46682;BME280;34101;53.430;-2.224;2024-01-06T05:29:33;101007.33;;;4.29;78.68
46682;BME280;34101;53.430;-2.224;2024-01-06T05:32:01;101012.07;;;4.29;78.76
46682;BME280;34101;53.430;-2.224;2024-01-06T05:34:28;101014.42;;;4.30;79.03
46682;BME280;34101;53.430;-2.224;2024-01-06T05:36:56;101016.25;;;4.32;78.99
46682;BME280;34101;53.430;-2.224;2024-01-06T05:39:23;101018.12;;;4.30;78.47
46682;BME280;34101;53.430;-2.224;2024-01-06T05:41:55;101020.95;;;4.23;78.55
46682;BME280;34101;53.430;-2.224;2024-01-06T05:44:22;101022.60;;;4.23;79.03
46682;BME280;34101;53.430;-2.224;2024-01-06T05:46:50;101022.57;;;4.24;78.81
46682;BME280;34101;53.430;-2.224;2024-01-06T05:49:18;101021.63;;;4.23;78.68
46682;BME280;34101;53.430;-2.224;2024-01-06T05:51:45;101030.78;;;4.20;78.53
46682;BME280;34101;53.430;-2.224;2024-01-06T05:54:13;101036.97;;;4.14;78.13
46682;BME280;34101;53.430;-2.224;2024-01-06T05:56:40;101040.19;;;4.08;78.67
46682;BME280;34101;53.430;-2.224;2024-01-06T05:59:08;101043.34;;;4.04;78.25
46682;BME280;34101;53.430;-2.224;2024-01-06T06:01:35;101045.77;;;4.04;78.51
46682;BME280;34101;53.430;-2.224;2024-01-06T06:04:03;101048.24;;;4.01;78.28
46682;BME280;34101;53.430;-2.224;2024-01-06T06:06:31;101051.67;;;4.00;78.13
46682;BME280;34101;53.430;-2.224;2024-01-06T06:08:59;101055.36;;;3.92;78.23
46682;BME280;34101;53.430;-2.224;2024-01-06T06:11:26;101063.93;;;3.95;78.41
46682;BME280;34101;53.430;-2.224;2024-01-06T06:13:54;101066.87;;;3.81;77.78
46682;BME280;34101;53.430;-2.224;2024-01-06T06:16:21;101068.73;;;3.87;78.71
46682;BME280;34101;53.430;-2.224;2024-01-06T06:18:49;101070.47;;;3.89;78.08
46682;BME280;34101;53.430;-2.224;2024-01-06T06:21:17;101077.50;;;3.86;78.24
46682;BME280;34101;53.430;-2.224;2024-01-06T06:23:45;101083.02;;;3.93;78.55
46682;BME280;34101;53.430;-2.224;2024-01-06T06:26:17;101088.11;;;3.81;78.40
46682;BME280;34101;53.430;-2.224;2024-01-06T06:28:44;101089.24;;;3.89;78.60
46682;BME280;34101;53.430;-2.224;2024-01-06T06:31:12;101090.21;;;3.93;78.47
46682;BME280;34101;53.430;-2.224;2024-01-06T06:33:39;101095.45;;;3.95;78.63
46682;BME280;34101;53.430;-2.224;2024-01-06T06:36:07;101102.38;;;3.98;78.70
46682;BME280;34101;53.430;-2.224;2024-01-06T06:38:34;101108.19;;;4.04;78.77
46682;BME280;34101;53.430;-2.224;2024-01-06T06:41:02;101110.29;;;4.11;78.58
46682;BME280;34101;53.430;-2.224;2024-01-06T06:43:29;101113.90;;;4.13;78.49
46682;BME280;34101;53.430;-2.224;2024-01-06T06:45:57;101118.04;;;4.11;78.18
46682;BME280;34101;53.430;-2.224;2024-01-06T06:48:25;101118.99;;;4.06;78.16
46682;BME280;34101;53.430;-2.224;2024-01-06T06:50:52;101122.09;;;4.04;78.46
46682;BME280;34101;53.430;-2.224;2024-01-06T06:53:20;101123.79;;;4.00;78.36
46682;BME280;34101;53.430;-2.224;2024-01-06T06:55:48;101127.29;;;3.99;78.26
46682;BME280;34101;53.430;-2.224;2024-01-06T06:58:15;101127.95;;;3.98;78.29
46682;BME280;34101;53.430;-2.224;2024-01-06T07:00:43;101125.79;;;3.91;78.29
46682;BME280;34101;53.430;-2.224;2024-01-06T07:03:11;101134.69;;;3.92;78.24
46682;BME280;34101;53.430;-2.224;2024-01-06T07:05:38;101143.54;;;3.83;78.11
46682;BME280;34101;53.430;-2.224;2024-01-06T07:08:06;101149.60;;;3.79;78.13
46682;BME280;34101;53.430;-2.224;2024-01-06T07:10:34;101150.46;;;3.85;78.48
46682;BME280;34101;53.430;-2.224;2024-01-06T07:13:01;101152.55;;;3.86;78.38
46682;BME280;34101;53.430;-2.224;2024-01-06T07:15:29;101156.30;;;3.86;78.22
46682;BME280;34101;53.430;-2.224;2024-01-06T07:17:57;101161.36;;;3.85;78.30
46682;BME280;34101;53.430;-2.224;2024-01-06T07:20:25;101167.50;;;3.81;78.41
46682;BME280;34101;53.430;-2.224;2024-01-06T07:22:52;101168.78;;;3.84;78.42
46682;BME280;34101;53.430;-2.224;2024-01-06T07:25:20;101162.07;;;3.84;78.06
46682;BME280;34101;53.430;-2.224;2024-01-06T07:27:47;101169.29;;;3.76;78.27
46682;BME280;34101;53.430;-2.224;2024-01-06T07:30:15;101178.97;;;3.75;78.47
46682;BME280;34101;53.430;-2.224;2024-01-06T07:32:42;101189.15;;;3.75;78.61
46682;BME280;34101;53.430;-2.224;2024-01-06T07:35:10;101195.74;;;3.74;77.94
46682;BME280;34101;53.430;-2.224;2024-01-06T07:37:37;101196.38;;;3.65;77.32
46682;BME280;34101;53.430;-2.224;2024-01-06T07:40:05;101197.79;;;3.44;77.51
46682;BME280;34101;53.430;-2.224;2024-01-06T07:42:33;101203.11;;;3.42;77.01
46682;BME280;34101;53.430;-2.224;2024-01-06T07:45:01;101209.12;;;3.37;78.01
46682;BME280;34101;53.430;-2.224;2024-01-06T07:47:28;101213.11;;;3.44;78.15
46682;BME280;34101;53.430;-2.224;2024-01-06T07:49:55;101219.77;;;3.40;78.20
46682;BME280;34101;53.430;-2.224;2024-01-06T07:52:23;101228.40;;;3.44;78.45
46682;BME280;34101;53.430;-2.224;2024-01-06T07:54:51;101227.23;;;3.50;78.69
46682;BME280;34101;53.430;-2.224;2024-01-06T07:57:18;101227.26;;;3.54;78.30
46682;BME280;34101;53.430;-2.224;2024-01-06T07:59:46;101231.34;;;3.54;77.97
46682;BME280;34101;53.430;-2.224;2024-01-06T08:02:13;101232.98;;;3.60;78.12
46682;BME280;34101;53.430;-2.224;2024-01-06T08:04:40;101236.51;;;3.64;78.18
46682;BME280;34101;53.430;-2.224;2024-01-06T08:07:08;101242.25;;;3.72;78.25
46682;BME280;34101;53.430;-2.224;2024-01-06T08:09:36;101245.83;;;3.74;78.17
46682;BME280;34101;53.430;-2.224;2024-01-06T08:12:04;101245.65;;;3.74;77.94
46682;BME280;34101;53.430;-2.224;2024-01-06T08:14:32;101248.08;;;3.81;78.16
46682;BME280;34101;53.430;-2.224;2024-01-06T08:17:00;101247.45;;;3.87;77.98
46682;BME280;34101;53.430;-2.224;2024-01-06T08:19:27;101252.99;;;3.86;77.24
46682;BME280;34101;53.430;-2.224;2024-01-06T08:21:55;101257.82;;;3.83;76.66
46682;BME280;34101;53.430;-2.224;2024-01-06T08:24:22;101268.50;;;3.77;77.52
46682;BME280;34101;53.430;-2.224;2024-01-06T08:26:50;101272.41;;;3.86;77.60
46682;BME280;34101;53.430;-2.224;2024-01-06T08:29:18;101277.57;;;3.78;77.41
46682;BME280;34101;53.430;-2.224;2024-01-06T08:31:46;101284.26;;;3.57;77.69
46682;BME280;34101;53.430;-2.224;2024-01-06T08:34:14;101295.67;;;3.45;77.87
46682;BME280;34101;53.430;-2.224;2024-01-06T08:36:42;101299.78;;;3.53;77.97
46682;BME280;34101;53.430;-2.224;2024-01-06T08:39:10;101300.30;;;3.52;78.09
46682;BME280;34101;53.430;-2.224;2024-01-06T08:41:38;101306.96;;;3.58;78.01
46682;BME280;34101;53.430;-2.224;2024-01-06T08:44:06;101308.73;;;3.60;78.00
46682;BME280;34101;53.430;-2.224;2024-01-06T08:46:33;101314.93;;;3.65;78.13
46682;BME280;34101;53.430;-2.224;2024-01-06T08:49:01;101316.48;;;3.69;78.07
46682;BME280;34101;53.430;-2.224;2024-01-06T08:51:28;101316.31;;;3.64;77.97
46682;BME280;34101;53.430;-2.224;2024-01-06T08:53:55;101317.44;;;3.60;77.37
46682;BME280;34101;53.430;-2.224;2024-01-06T08:56:23;101324.24;;;3.63;77.82
46682;BME280;34101;53.430;-2.224;2024-01-06T08:58:51;101328.11;;;3.70;77.94
46682;BME280;34101;53.430;-2.224;2024-01-06T09:01:19;101333.61;;;3.74;77.70
46682;BME280;34101;53.430;-2.224;2024-01-06T09:03:46;101337.86;;;3.75;77.47
46682;BME280;34101;53.430;-2.224;2024-01-06T09:06:13;101339.72;;;3.76;77.39
46682;BME280;34101;53.430;-2.224;2024-01-06T09:08:40;101339.72;;;3.73;77.01
46682;BME280;34101;53.430;-2.224;2024-01-06T09:11:08;101338.66;;;3.70;76.73
46682;BME280;34101;53.430;-2.224;2024-01-06T09:13:35;101338.93;;;3.71;76.63
46682;BME280;34101;53.430;-2.224;2024-01-06T09:16:03;101341.93;;;3.77;76.99
46682;BME280;34101;53.430;-2.224;2024-01-06T09:18:32;101347.58;;;3.97;77.13
46682;BME280;34101;53.430;-2.224;2024-01-06T09:21:00;101355.59;;;4.18;76.65
46682;BME280;34101;53.430;-2.224;2024-01-06T09:23:27;101358.99;;;4.30;76.49
46682;BME280;34101;53.430;-2.224;2024-01-06T09:25:55;101362.93;;;4.30;75.92
46682;BME280;34101;53.430;-2.224;2024-01-06T09:28:23;101366.27;;;4.42;76.34
46682;BME280;34101;53.430;-2.224;2024-01-06T09:30:50;101370.36;;;4.56;76.27
46682;BME280;34101;53.430;-2.224;2024-01-06T09:33:18;101376.24;;;4.72;75.91
46682;BME280;34101;53.430;-2.224;2024-01-06T09:35:46;101375.95;;;4.81;74.47
46682;BME280;34101;53.430;-2.224;2024-01-06T09:38:14;101382.98;;;4.92;74.53
46682;BME280;34101;53.430;-2.224;2024-01-06T09:40:42;101385.02;;;4.97;74.27
46682;BME280;34101;53.430;-2.224;2024-01-06T09:43:10;101386.95;;;4.94;74.05
46682;BME280;34101;53.430;-2.224;2024-01-06T09:45:38;101389.07;;;4.86;74.02
46682;BME280;34101;53.430;-2.224;2024-01-06T09:48:10;101389.25;;;4.94;74.33
46682;BME280;34101;53.430;-2.224;2024-01-06T09:50:41;101386.23;;;5.11;73.37
46682;BME280;34101;53.430;-2.224;2024-01-06T09:53:10;101388.29;;;4.93;72.16
46682;BME280;34101;53.430;-2.224;2024-01-06T09:55:38;101390.75;;;5.10;73.06
46682;BME280;34101;53.430;-2.224;2024-01-06T09:58:07;101397.43;;;5.14;73.50
46682;BME280;34101;53.430;-2.224;2024-01-06T10:00:35;101401.29;;;5.35;72.13
46682;BME280;34101;53.430;-2.224;2024-01-06T10:03:03;101413.17;;;5.31;72.63
46682;BME280;34101;53.430;-2.224;2024-01-06T10:05:31;101413.82;;;5.37;72.97
46682;BME280;34101;53.430;-2.224;2024-01-06T10:07:59;101412.91;;;5.63;72.92
46682;BME280;34101;53.430;-2.224;2024-01-06T10:10:27;101415.11;;;5.96;72.34
46682;BME280;34101;53.430;-2.224;2024-01-06T10:12:54;101420.29;;;5.79;71.58
46682;BME280;34101;53.430;-2.224;2024-01-06T10:15:22;101418.22;;;5.71;71.66
46682;BME280;34101;53.430;-2.224;2024-01-06T10:17:49;101422.64;;;5.72;71.75
46682;BME280;34101;53.430;-2.224;2024-01-06T10:20:16;101429.45;;;5.68;71.67
46682;BME280;34101;53.430;-2.224;2024-01-06T10:22:45;101435.71;;;5.68;71.62
46682;BME280;34101;53.430;-2.224;2024-01-06T10:25:13;101436.32;;;5.68;71.47
46682;BME280;34101;53.430;-2.224;2024-01-06T10:27:41;101438.12;;;5.69;71.82
46682;BME280;34101;53.430;-2.224;2024-01-06T10:30:10;101438.88;;;5.69;71.43
46682;BME280;34101;53.430;-2.224;2024-01-06T10:32:39;101443.43;;;5.69;71.37
46682;BME280;34101;53.430;-2.224;2024-01-06T10:35:07;101442.92;;;5.51;70.63
46682;BME280;34101;53.430;-2.224;2024-01-06T10:37:36;101446.54;;;5.49;70.89
46682;BME280;34101;53.430;-2.224;2024-01-06T10:40:08;101447.91;;;5.42;71.75
46682;BME280;34101;53.430;-2.224;2024-01-06T10:42:37;101448.61;;;5.13;72.76
46682;BME280;34101;53.430;-2.224;2024-01-06T10:45:07;101450.82;;;5.35;72.47
46682;BME280;34101;53.430;-2.224;2024-01-06T10:47:36;101451.09;;;5.44;72.63
46682;BME280;34101;53.430;-2.224;2024-01-06T10:50:04;101448.10;;;5.25;72.62
46682;BME280;34101;53.430;-2.224;2024-01-06T10:52:32;101451.12;;;5.43;73.30
46682;BME280;34101;53.430;-2.224;2024-01-06T10:54:59;101448.90;;;5.48;72.97
46682;BME280;34101;53.430;-2.224;2024-01-06T10:57:27;101450.03;;;5.30;72.83
46682;BME280;34101;53.430;-2.224;2024-01-06T10:59:58;101448.24;;;5.38;73.38
46682;BME280;34101;53.430;-2.224;2024-01-06T11:02:26;101451.96;;;5.75;73.51
46682;BME280;34101;53.430;-2.224;2024-01-06T11:04:54;101454.09;;;5.91;72.55
46682;BME280;34101;53.430;-2.224;2024-01-06T11:07:23;101456.89;;;6.08;72.57
46682;BME280;34101;53.430;-2.224;2024-01-06T11:09:57;101461.42;;;6.21;72.43
46682;BME280;34101;53.430;-2.224;2024-01-06T11:12:24;101459.47;;;6.31;71.15
46682;BME280;34101;53.430;-2.224;2024-01-06T11:14:52;101453.75;;;6.23;71.01
46682;BME280;34101;53.430;-2.224;2024-01-06T11:17:50;101448.55;;;6.22;70.91
46682;BME280;34101;53.430;-2.224;2024-01-06T11:20:18;101445.87;;;6.50;72.11
46682;BME280;34101;53.430;-2.224;2024-01-06T11:22:45;101454.88;;;6.63;71.80
46682;BME280;34101;53.430;-2.224;2024-01-06T11:25:14;101457.68;;;6.73;71.55
46682;BME280;34101;53.430;-2.224;2024-01-06T11:27:42;101454.89;;;6.22;70.55
46682;BME280;34101;53.430;-2.224;2024-01-06T11:30:20;101454.64;;;6.32;72.17
46682;BME280;34101;53.430;-2.224;2024-01-06T11:32:48;101457.09;;;6.72;72.20
46682;BME280;34101;53.430;-2.224;2024-01-06T11:35:16;101454.19;;;6.85;71.16
46682;BME280;34101;53.430;-2.224;2024-01-06T11:37:53;101461.17;;;6.88;71.62
46682;BME280;34101;53.430;-2.224;2024-01-06T11:40:26;101463.98;;;6.81;71.61
46682;BME280;34101;53.430;-2.224;2024-01-06T11:43:01;101465.21;;;6.87;71.24
46682;BME280;34101;53.430;-2.224;2024-01-06T11:45:29;101461.50;;;6.83;70.93
46682;BME280;34101;53.430;-2.224;2024-01-06T11:47:58;101459.39;;;6.79;70.98
46682;BME280;34101;53.430;-2.224;2024-01-06T11:50:27;101455.65;;;6.78;71.49
46682;BME280;34101;53.430;-2.224;2024-01-06T11:52:55;101461.02;;;6.79;72.10
46682;BME280;34101;53.430;-2.224;2024-01-06T11:55:23;101464.99;;;6.91;72.81
46682;BME280;34101;53.430;-2.224;2024-01-06T11:57:51;101469.53;;;7.03;72.96
46682;BME280;34101;53.430;-2.224;2024-01-06T12:00:19;101468.35;;;7.04;72.38
46682;BME280;34101;53.430;-2.224;2024-01-06T12:02:46;101463.54;;;6.97;71.39
46682;BME280;34101;53.430;-2.224;2024-01-06T12:05:15;101466.61;;;7.33;71.72
46682;BME280;34101;53.430;-2.224;2024-01-06T12:07:52;101468.73;;;7.79;70.77
46682;BME280;34101;53.430;-2.224;2024-01-06T12:10:20;101472.03;;;8.04;69.32
46682;BME280;34101;53.430;-2.224;2024-01-06T12:12:55;101470.08;;;8.16;68.66
46682;BME280;34101;53.430;-2.224;2024-01-06T12:15:23;101468.89;;;8.43;67.68
46682;BME280;34101;53.430;-2.224;2024-01-06T12:17:51;101464.92;;;8.85;67.80
46682;BME280;34101;53.430;-2.224;2024-01-06T12:20:19;101463.69;;;9.22;66.46
46682;BME280;34101;53.430;-2.224;2024-01-06T12:22:48;101458.62;;;9.52;65.15
46682;BME280;34101;53.430;-2.224;2024-01-06T12:25:16;101458.60;;;9.71;63.91
46682;BME280;34101;53.430;-2.224;2024-01-06T12:27:44;101460.87;;;9.16;64.83
46682;BME280;34101;53.430;-2.224;2024-01-06T12:30:13;101466.04;;;9.32;65.11
46682;BME280;34101;53.430;-2.224;2024-01-06T12:32:41;101467.66;;;9.37;65.45
46682;BME280;34101;53.430;-2.224;2024-01-06T12:35:09;101466.67;;;9.41;65.71
46682;BME280;34101;53.430;-2.224;2024-01-06T12:37:37;101467.02;;;9.20;65.57
46682;BME280;34101;53.430;-2.224;2024-01-06T12:40:04;101469.68;;;9.32;66.16
46682;BME280;34101;53.430;-2.224;2024-01-06T12:42:33;101470.34;;;9.17;65.88
46682;BME280;34101;53.430;-2.224;2024-01-06T12:45:01;101468.64;;;9.03;67.17
46682;BME280;34101;53.430;-2.224;2024-01-06T12:47:29;101470.73;;;8.87;66.46
46682;BME280;34101;53.430;-2.224;2024-01-06T12:49:56;101472.57;;;8.69;68.07
46682;BME280;34101;53.430;-2.224;2024-01-06T12:52:23;101473.30;;;8.44;68.89
46682;BME280;34101;53.430;-2.224;2024-01-06T12:54:51;101472.50;;;8.19;69.01